Deo Volente — PHFJ — position and weather

sailwx.info

Track history (hours):
 
Tides and Currents Weather Stations Pressure Air Temp Water Temp Dewpoint Dewpoint Depression Visibility Wind Speed Wind Dir Waves Ship Positions

Deo Volente

Last reported at 2016-Feb-11 07:21 UTC. Time now 2016-Feb-14 01:46 UTC.
Position N 38°52' E 015°01'.

Length 105 m; draft 4.9 m.

Type: Cargo ship. MMSI: 246518000.

Date/timePositionNaut miles runAvg speedWind from/ knotsBaromVisibWave heightAir tempDewpointWater temp
2016-Feb-11 07:21N 38°52' E 015°01'8 9.8
2016-Feb-11 06:33N 38°46' E 015°07'10 9.6
2016-Feb-11 05:32N 38°39' E 015°16'10 9.7
2016-Feb-11 04:30N 38°31' E 015°25'9 9.7
2016-Feb-11 03:34N 38°25' E 015°32'1010.0
2016-Feb-11 02:33N 38°17' E 015°41'8 8.5
2016-Feb-11 01:33N 38°09' E 015°37'9 8.9
2016-Feb-11 00:33N 38°01' E 015°36'8 8.3
2016-Feb-10 23:34N 37°54' E 015°43'  
2016-Feb-08 19:10N 44°45' E 012°57'910.8
2016-Feb-08 18:22N 44°53' E 012°52'1012.2
2016-Feb-08 17:33N 45°01' E 012°45'1212.3
2016-Feb-08 16:33N 45°10' E 012°34'1211.9
2016-Feb-08 15:33N 45°19' E 012°22'9 8.6
2016-Feb-08 14:33N 45°26' E 012°16'1 1.4
2016-Feb-08 13:33N 45°28' E 012°15'0 0.0
2016-Feb-08 12:33N 45°28' E 012°15'0 0.0
2016-Feb-08 11:33N 45°28' E 012°15'0 0.0
2016-Feb-08 10:33N 45°28' E 012°15'0 0.0
2016-Feb-08 09:33N 45°28' E 012°15'0 0.0
2016-Feb-08 08:33N 45°28' E 012°15'0 0.0
2016-Feb-08 07:33N 45°28' E 012°15'0 0.0
2016-Feb-08 06:33N 45°28' E 012°15'5 4.8
2016-Feb-08 05:34N 45°23' E 012°16'6 5.4
2016-Feb-08 04:31N 45°20' E 012°23'0 0.0
2016-Feb-08 03:32N 45°20' E 012°23'0 0.0
2016-Feb-08 02:31N 45°21' E 012°23'0 0.0
2016-Feb-08 01:31N 45°21' E 012°23'0 0.0
2016-Feb-08 00:32N 45°21' E 012°23'0 0.0
2016-Feb-07 23:31N 45°21' E 012°23'0 0.0
2016-Feb-07 22:31N 45°20' E 012°23'0 0.0
2016-Feb-07 21:31N 45°21' E 012°23'0 0.0
2016-Feb-07 20:31N 45°21' E 012°23'0 0.0
2016-Feb-07 19:31N 45°21' E 012°23'0 0.0
2016-Feb-07 18:28N 45°20' E 012°23'0 0.0
2016-Feb-07 17:31N 45°21' E 012°23'0 0.0
2016-Feb-07 16:31N 45°20' E 012°23'0 0.0
2016-Feb-07 15:31N 45°20' E 012°23'0 0.0
2016-Feb-07 14:31N 45°21' E 012°23'0 0.0
2016-Feb-07 13:31N 45°21' E 012°23'0 0.1
2016-Feb-07 12:31N 45°20' E 012°23'0 0.0
2016-Feb-07 11:31N 45°20' E 012°23'0 0.0
2016-Feb-07 10:31N 45°20' E 012°23'0 0.0
2016-Feb-07 09:31N 45°20' E 012°23'0 0.0
2016-Feb-07 08:31N 45°20' E 012°23'0 0.0
2016-Feb-07 07:31N 45°20' E 012°23'0 0.0
2016-Feb-07 06:29N 45°20' E 012°23'0 0.0
2016-Feb-07 05:31N 45°20' E 012°23'0 0.0
2016-Feb-07 04:31N 45°20' E 012°23'0 0.0
2016-Feb-07 03:31N 45°20' E 012°23'0 0.0
2016-Feb-07 02:31N 45°20' E 012°23'0 0.0
2016-Feb-07 01:31N 45°20' E 012°23'0 0.0
2016-Feb-07 00:31N 45°20' E 012°23'0 0.1
2016-Feb-06 23:13N 45°20' E 012°23'0 0.1
2016-Feb-06 22:31N 45°21' E 012°23'0 0.0
2016-Feb-06 21:31N 45°21' E 012°23'0 0.1
2016-Feb-06 20:31N 45°20' E 012°23'3 3.4
2016-Feb-06 19:33N 45°19' E 012°26'1616.2
2016-Feb-06 18:33N 45°09' E 012°45'1312.6
2016-Feb-06 17:33N 44°58' E 012°54'51312.2
2016-Feb-04 23:32N 38°19' E 020°03'3113.7
2016-Feb-04 21:18N 37°52' E 020°24'  
Track history (hours):
 
Tides and Currents Weather Stations Pressure Air Temp Water Temp Dewpoint Dewpoint Depression Visibility Wind Speed Wind Dir Waves Ship Positions

Deo Volente

Last reported at 2016-Feb-11 07:21 UTC. Time now 2016-Feb-14 01:46 UTC.
Position N 38°52' E 015°01'.

Length 105 m; draft 4.9 m.

Type: Cargo ship. MMSI: 246518000.

Date/timePositionNaut miles runAvg speedWind from/ knotsBaromVisibWave heightAir tempDewpointWater temp
2016-Feb-11 07:21N 38°52' E 015°01'8 9.8
2016-Feb-11 06:33N 38°46' E 015°07'10 9.6
2016-Feb-11 05:32N 38°39' E 015°16'10 9.7
2016-Feb-11 04:30N 38°31' E 015°25'9 9.7
2016-Feb-11 03:34N 38°25' E 015°32'1010.0
2016-Feb-11 02:33N 38°17' E 015°41'8 8.5
2016-Feb-11 01:33N 38°09' E 015°37'9 8.9
2016-Feb-11 00:33N 38°01' E 015°36'8 8.3
2016-Feb-10 23:34N 37°54' E 015°43'  
2016-Feb-08 19:10N 44°45' E 012°57'910.8
2016-Feb-08 18:22N 44°53' E 012°52'1012.2
2016-Feb-08 17:33N 45°01' E 012°45'1212.3
2016-Feb-08 16:33N 45°10' E 012°34'1211.9
2016-Feb-08 15:33N 45°19' E 012°22'9 8.6
2016-Feb-08 14:33N 45°26' E 012°16'1 1.4
2016-Feb-08 13:33N 45°28' E 012°15'0 0.0
2016-Feb-08 12:33N 45°28' E 012°15'0 0.0
2016-Feb-08 11:33N 45°28' E 012°15'0 0.0
2016-Feb-08 10:33N 45°28' E 012°15'0 0.0
2016-Feb-08 09:33N 45°28' E 012°15'0 0.0
2016-Feb-08 08:33N 45°28' E 012°15'0 0.0
2016-Feb-08 07:33N 45°28' E 012°15'0 0.0
2016-Feb-08 06:33N 45°28' E 012°15'5 4.8
2016-Feb-08 05:34N 45°23' E 012°16'6 5.4
2016-Feb-08 04:31N 45°20' E 012°23'0 0.0
2016-Feb-08 03:32N 45°20' E 012°23'0 0.0
2016-Feb-08 02:31N 45°21' E 012°23'0 0.0
2016-Feb-08 01:31N 45°21' E 012°23'0 0.0
2016-Feb-08 00:32N 45°21' E 012°23'0 0.0
2016-Feb-07 23:31N 45°21' E 012°23'0 0.0
2016-Feb-07 22:31N 45°20' E 012°23'0 0.0
2016-Feb-07 21:31N 45°21' E 012°23'0 0.0
2016-Feb-07 20:31N 45°21' E 012°23'0 0.0
2016-Feb-07 19:31N 45°21' E 012°23'0 0.0
2016-Feb-07 18:28N 45°20' E 012°23'0 0.0
2016-Feb-07 17:31N 45°21' E 012°23'0 0.0
2016-Feb-07 16:31N 45°20' E 012°23'0 0.0
2016-Feb-07 15:31N 45°20' E 012°23'0 0.0
2016-Feb-07 14:31N 45°21' E 012°23'0 0.0
2016-Feb-07 13:31N 45°21' E 012°23'0 0.1
2016-Feb-07 12:31N 45°20' E 012°23'0 0.0
2016-Feb-07 11:31N 45°20' E 012°23'0 0.0
2016-Feb-07 10:31N 45°20' E 012°23'0 0.0
2016-Feb-07 09:31N 45°20' E 012°23'0 0.0
2016-Feb-07 08:31N 45°20' E 012°23'0 0.0
2016-Feb-07 07:31N 45°20' E 012°23'0 0.0
2016-Feb-07 06:29N 45°20' E 012°23'0 0.0
2016-Feb-07 05:31N 45°20' E 012°23'0 0.0
2016-Feb-07 04:31N 45°20' E 012°23'0 0.0
2016-Feb-07 03:31N 45°20' E 012°23'0 0.0
2016-Feb-07 02:31N 45°20' E 012°23'0 0.0
2016-Feb-07 01:31N 45°20' E 012°23'0 0.0
2016-Feb-07 00:31N 45°20' E 012°23'0 0.1
2016-Feb-06 23:13N 45°20' E 012°23'0 0.1
2016-Feb-06 22:31N 45°21' E 012°23'0 0.0
2016-Feb-06 21:31N 45°21' E 012°23'0 0.1
2016-Feb-06 20:31N 45°20' E 012°23'3 3.4
2016-Feb-06 19:33N 45°19' E 012°26'1616.2
2016-Feb-06 18:33N 45°09' E 012°45'1312.6
2016-Feb-06 17:33N 44°58' E 012°54'51312.2
2016-Feb-04 23:32N 38°19' E 020°03'3113.7
2016-Feb-04 21:18N 37°52' E 020°24'  

Dump ship's entire track history